createdAt,value
2018-11-29T00:00:37.054Z,1.17
2018-11-29T00:03:09.478Z,1.10
2018-11-29T00:05:38.738Z,1.30
2018-11-29T00:08:07.919Z,1.57
2018-11-29T00:10:37.061Z,1.20
2018-11-29T00:13:11.377Z,1.37
2018-11-29T00:15:41.163Z,1.30
2018-11-29T00:18:14.325Z,1.33
2018-11-29T00:20:44.362Z,1.60
2018-11-29T00:23:19.090Z,1.60
2018-11-29T00:25:48.259Z,1.93
2018-11-29T00:28:18.781Z,1.37
2018-11-29T00:30:48.458Z,1.60
2018-11-29T00:33:21.524Z,2.00
2018-11-29T00:35:50.727Z,1.53
2018-11-29T00:38:23.228Z,1.67
2018-11-29T00:40:52.832Z,1.40
2018-11-29T00:43:26.294Z,2.23
2018-11-29T00:45:55.717Z,1.83
2018-11-29T00:48:28.100Z,2.20
2018-11-29T00:50:57.469Z,2.10
2018-11-29T00:53:30.606Z,1.80
2018-11-29T00:56:01.536Z,2.10
2018-11-29T00:58:34.225Z,1.63
2018-11-29T01:01:03.632Z,1.70
2018-11-29T01:03:37.368Z,1.80
2018-11-29T01:06:07.938Z,2.20
2018-11-29T01:08:38.860Z,1.77
2018-11-29T01:11:08.683Z,1.67
2018-11-29T01:13:41.070Z,1.83
2018-11-29T01:16:10.178Z,1.80
2018-11-29T01:18:43.092Z,1.97
2018-11-29T01:21:12.564Z,1.93
2018-11-29T01:23:45.294Z,1.40
2018-11-29T01:26:14.440Z,2.10
2018-11-29T01:28:49.066Z,1.97
2018-11-29T01:31:18.131Z,2.43
2018-11-29T01:33:52.138Z,1.80
2018-11-29T01:36:21.650Z,2.40
2018-11-29T01:38:54.683Z,2.67
2018-11-29T01:41:24.389Z,1.90
2018-11-29T01:43:58.588Z,2.40
2018-11-29T01:46:27.662Z,2.20
2018-11-29T01:49:00.433Z,1.87
2018-11-29T01:51:30.036Z,1.90
2018-11-29T01:54:06.792Z,1.90
2018-11-29T01:56:35.844Z,1.80
2018-11-29T01:59:06.295Z,1.73
2018-11-29T02:01:35.628Z,1.80
2018-11-29T02:04:09.964Z,1.50
2018-11-29T02:06:39.100Z,1.67
2018-11-29T02:09:13.421Z,1.87
2018-11-29T02:11:43.459Z,1.73
2018-11-29T02:14:16.425Z,1.50
2018-11-29T02:16:45.475Z,1.23
2018-11-29T02:19:17.922Z,1.63
2018-11-29T02:21:47.022Z,1.67
2018-11-29T02:24:20.433Z,1.57
2018-11-29T02:26:50.001Z,1.37
2018-11-29T02:29:23.152Z,1.40
2018-11-29T02:31:52.810Z,1.37
2018-11-29T02:34:26.272Z,1.43
2018-11-29T02:36:56.137Z,1.27
2018-11-29T02:39:29.615Z,1.47
2018-11-29T02:41:58.994Z,1.57
2018-11-29T02:44:30.073Z,1.23
2018-11-29T02:46:59.304Z,1.40
2018-11-29T02:49:32.123Z,1.60
2018-11-29T02:52:01.645Z,1.67
2018-11-29T02:54:36.026Z,1.10
2018-11-29T02:57:05.294Z,1.37
2018-11-29T02:59:37.717Z,1.30
2018-11-29T03:02:06.744Z,1.30
2018-11-29T03:04:40.704Z,1.60
2018-11-29T03:07:09.960Z,1.40
2018-11-29T03:09:42.301Z,1.10
2018-11-29T03:12:12.018Z,1.50
2018-11-29T03:14:46.107Z,0.97
2018-11-29T03:17:15.354Z,1.37
2018-11-29T03:19:48.404Z,1.70
2018-11-29T03:22:17.422Z,1.60
2018-11-29T03:24:50.471Z,1.40
2018-11-29T03:27:20.181Z,1.17
2018-11-29T03:29:54.006Z,1.33
2018-11-29T03:32:23.659Z,1.37
2018-11-29T03:34:56.499Z,1.30
2018-11-29T03:37:25.510Z,1.10
2018-11-29T03:39:58.529Z,1.10
2018-11-29T03:42:27.867Z,1.20
2018-11-29T03:45:00.967Z,1.40
2018-11-29T03:47:30.740Z,1.00
2018-11-29T03:50:05.068Z,1.20
2018-11-29T03:52:34.291Z,0.90
2018-11-29T03:55:07.977Z,1.20
2018-11-29T03:57:37.003Z,0.90
2018-11-29T04:00:13.230Z,1.20
2018-11-29T04:02:42.294Z,1.10
2018-11-29T04:05:14.161Z,1.20
2018-11-29T04:07:43.308Z,1.63
2018-11-29T04:10:17.236Z,1.23
2018-11-29T04:12:46.922Z,1.30
2018-11-29T04:15:19.906Z,1.33
2018-11-29T04:17:49.350Z,1.20
2018-11-29T04:20:21.851Z,0.97
2018-11-29T04:22:51.556Z,1.00
2018-11-29T04:25:24.671Z,1.30
2018-11-29T04:27:54.169Z,1.00
2018-11-29T04:30:27.241Z,0.90
2018-11-29T04:32:57.248Z,1.17
2018-11-29T04:35:30.308Z,1.10
2018-11-29T04:37:59.792Z,1.13
2018-11-29T04:40:32.269Z,1.00
2018-11-29T04:43:01.461Z,1.10
2018-11-29T04:45:49.815Z,1.00
2018-11-29T04:48:19.072Z,0.90
2018-11-29T04:50:49.830Z,1.03
2018-11-29T04:53:17.703Z,1.10
2018-11-29T04:55:47.459Z,0.90
2018-11-29T04:58:18.605Z,0.80
2018-11-29T05:00:48.116Z,1.23
2018-11-29T05:03:17.363Z,0.80
2018-11-29T05:05:47.194Z,1.07
2018-11-29T05:08:16.241Z,1.20
2018-11-29T05:10:52.559Z,1.20
2018-11-29T05:13:21.864Z,1.23
2018-11-29T05:15:51.088Z,1.10
2018-11-29T05:18:20.154Z,1.27
2018-11-29T05:20:53.572Z,1.20
2018-11-29T05:23:22.584Z,2.63
2018-11-29T05:25:56.431Z,1.37
2018-11-29T05:28:25.914Z,1.20
2018-11-29T05:30:58.950Z,1.30
2018-11-29T05:33:27.925Z,1.30
2018-11-29T05:36:05.223Z,0.97
2018-11-29T05:38:34.318Z,1.40
2018-11-29T05:41:06.630Z,0.90
2018-11-29T05:43:35.965Z,1.10
2018-11-29T05:46:12.762Z,1.27
2018-11-29T05:48:42.057Z,1.30
2018-11-29T05:51:13.622Z,1.27
2018-11-29T05:53:42.735Z,1.00
2018-11-29T05:56:15.255Z,1.07
2018-11-29T05:58:44.469Z,1.00
2018-11-29T06:01:24.517Z,1.23
2018-11-29T06:03:53.532Z,0.97
2018-11-29T06:06:22.785Z,1.10
2018-11-29T06:08:51.842Z,1.10
2018-11-29T06:11:22.294Z,1.13
2018-11-29T06:13:51.746Z,0.90
2018-11-29T06:16:28.052Z,0.90
2018-11-29T06:18:57.131Z,1.20
2018-11-29T06:21:29.507Z,1.17
2018-11-29T06:23:58.573Z,1.10
2018-11-29T06:26:30.852Z,1.03
2018-11-29T06:28:59.878Z,1.20
2018-11-29T06:31:32.619Z,0.90
2018-11-29T06:34:01.663Z,1.13
2018-11-29T06:36:34.904Z,1.17
2018-11-29T06:39:04.990Z,1.43
2018-11-29T06:41:38.087Z,1.30
2018-11-29T06:44:07.065Z,1.20
2018-11-29T06:46:43.637Z,1.30
2018-11-29T06:49:12.671Z,1.20
2018-11-29T06:51:44.743Z,1.33
2018-11-29T06:54:13.771Z,1.57
2018-11-29T06:56:47.682Z,1.57
2018-11-29T06:59:17.613Z,1.80
2018-11-29T07:01:49.101Z,1.90
2018-11-29T07:04:18.092Z,1.60
2018-11-29T07:06:50.886Z,1.67
2018-11-29T07:09:20.396Z,1.50
2018-11-29T07:11:58.022Z,1.30
2018-11-29T07:14:27.095Z,1.40
2018-11-29T07:17:15.091Z,1.10
2018-11-29T07:19:44.286Z,1.63
2018-11-29T07:22:13.342Z,1.37
2018-11-29T07:24:43.736Z,1.20
2018-11-29T07:27:12.738Z,1.57
2018-11-29T07:29:41.778Z,1.30
2018-11-29T07:32:13.296Z,1.03
2018-11-29T07:34:42.370Z,1.20
2018-11-29T07:37:11.782Z,1.23
2018-11-29T07:39:41.534Z,1.30
2018-11-29T07:42:14.284Z,1.00
2018-11-29T07:44:43.411Z,1.17
2018-11-29T07:47:16.380Z,1.10
2018-11-29T07:49:45.499Z,1.10
2018-11-29T07:52:19.012Z,1.00
2018-11-29T07:54:48.121Z,0.97
2018-11-29T07:57:21.338Z,0.90
2018-11-29T07:59:51.059Z,0.97
2018-11-29T08:02:23.239Z,1.00
2018-11-29T08:07:27.112Z,1.00
2018-11-29T08:09:56.167Z,0.70
2018-11-29T08:15:01.621Z,1.10
2018-11-29T08:17:31.277Z,0.80
2018-11-29T08:20:00.731Z,0.83
2018-11-29T08:22:34.487Z,0.90
2018-11-29T08:25:03.607Z,0.90
2018-11-29T08:27:39.884Z,1.00
2018-11-29T08:30:10.480Z,1.07
2018-11-29T08:32:39.544Z,1.17
2018-11-29T08:35:10.204Z,1.10
2018-11-29T08:37:43.595Z,1.00
2018-11-29T08:40:16.992Z,1.00
2018-11-29T08:42:46.189Z,1.20
2018-11-29T08:45:15.425Z,1.20
2018-11-29T08:47:48.479Z,1.00
2018-11-29T08:50:17.885Z,1.23
2018-11-29T08:52:50.861Z,1.03
2018-11-29T08:55:20.641Z,1.10
2018-11-29T08:57:57.626Z,1.00
2018-11-29T09:03:03.959Z,1.10
2018-11-29T09:05:34.059Z,1.00
2018-11-29T09:08:03.216Z,1.53
2018-11-29T09:10:32.434Z,1.20
2018-11-29T09:13:01.686Z,1.40
2018-11-29T09:15:31.843Z,1.20
2018-11-29T09:18:04.469Z,1.10
2018-11-29T09:20:33.741Z,1.00
2018-11-29T09:23:08.044Z,1.07
2018-11-29T09:25:37.479Z,1.63
2018-11-29T09:28:14.617Z,1.00
2018-11-29T09:30:43.642Z,1.20
2018-11-29T09:33:13.870Z,0.90
2018-11-29T09:35:42.939Z,1.10
2018-11-29T09:38:18.061Z,1.10
2018-11-29T09:40:47.167Z,0.93
2018-11-29T09:43:19.561Z,1.30
2018-11-29T09:45:48.701Z,1.10
2018-11-29T09:48:22.406Z,1.47
2018-11-29T09:50:52.887Z,1.00
2018-11-29T09:53:25.328Z,1.17
2018-11-29T09:55:54.494Z,1.40
2018-11-29T09:58:27.176Z,1.20
2018-11-29T10:00:56.301Z,1.23
2018-11-29T10:03:30.950Z,1.20
2018-11-29T10:05:59.989Z,1.20
2018-11-29T10:08:36.554Z,1.30
2018-11-29T10:11:05.965Z,1.27
2018-11-29T10:13:35.109Z,1.07
2018-11-29T10:16:04.234Z,1.23
2018-11-29T10:18:39.688Z,1.10
2018-11-29T10:21:08.885Z,1.00
2018-11-29T10:23:40.003Z,0.97
2018-11-29T10:26:09.424Z,1.10
2018-11-29T10:28:45.749Z,1.23
2018-11-29T10:31:14.841Z,1.20
2018-11-29T10:33:47.681Z,1.10
2018-11-29T10:36:16.719Z,0.97
2018-11-29T10:38:49.386Z,1.00
2018-11-29T10:41:18.793Z,1.10
2018-11-29T10:43:55.473Z,0.97
2018-11-29T10:46:24.612Z,0.90
2018-11-29T10:48:54.280Z,1.47
2018-11-29T10:51:23.538Z,1.10
2018-11-29T10:53:55.723Z,0.93
2018-11-29T10:56:25.092Z,1.20
2018-11-29T10:59:01.525Z,1.27
2018-11-29T11:01:31.832Z,1.47
2018-11-29T11:04:04.800Z,1.50
2018-11-29T11:06:33.979Z,1.47
2018-11-29T11:09:07.476Z,2.07
2018-11-29T11:11:37.878Z,1.80
2018-11-29T11:14:08.341Z,1.67
2018-11-29T11:16:37.536Z,1.40
2018-11-29T11:19:12.350Z,1.53
2018-11-29T11:21:41.602Z,1.20
2018-11-29T11:24:14.394Z,1.10
2018-11-29T11:26:45.207Z,1.10
2018-11-29T11:29:18.023Z,1.43
2018-11-29T11:31:47.299Z,1.00
2018-11-29T11:34:20.253Z,1.67
2018-11-29T11:36:49.482Z,1.10
2018-11-29T11:39:22.613Z,1.30
2018-11-29T11:41:52.153Z,1.43
2018-11-29T11:44:23.019Z,1.57
2018-11-29T11:46:52.988Z,1.20
2018-11-29T11:49:29.935Z,1.50
2018-11-29T11:51:59.277Z,1.23
2018-11-29T11:54:31.866Z,1.20
2018-11-29T11:57:01.410Z,1.30
2018-11-29T11:59:34.099Z,1.10
2018-11-29T12:02:03.303Z,1.10
2018-11-29T12:04:35.604Z,1.40
2018-11-29T12:07:04.761Z,1.50
2018-11-29T12:09:37.250Z,1.30
2018-11-29T12:12:07.471Z,1.60
2018-11-29T12:14:39.912Z,1.83
2018-11-29T12:17:09.082Z,1.50
2018-11-29T12:19:44.000Z,1.10
2018-11-29T12:22:13.062Z,1.20
2018-11-29T12:24:46.333Z,1.10
2018-11-29T12:27:15.361Z,1.10
2018-11-29T12:29:52.193Z,1.23
2018-11-29T12:32:21.736Z,1.40
2018-11-29T12:34:52.446Z,1.07
2018-11-29T12:37:24.707Z,1.30
2018-11-29T12:39:54.051Z,1.20
2018-11-29T12:42:23.174Z,1.20
2018-11-29T12:44:58.733Z,1.20
2018-11-29T12:47:27.868Z,1.30
2018-11-29T12:50:00.395Z,1.60
2018-11-29T12:52:29.878Z,1.40
2018-11-29T12:55:04.070Z,1.20
2018-11-29T12:57:33.180Z,1.60
2018-11-29T13:00:10.594Z,1.47
2018-11-29T13:02:40.824Z,1.50
2018-11-29T13:05:10.738Z,1.60
2018-11-29T13:07:43.272Z,1.37
2018-11-29T13:10:17.547Z,1.57
2018-11-29T13:12:48.076Z,1.67
2018-11-29T13:15:22.405Z,2.60
2018-11-29T13:17:51.703Z,1.60
2018-11-29T13:20:21.258Z,1.50
2018-11-29T13:22:50.501Z,1.30
2018-11-29T13:25:22.808Z,2.40
2018-11-29T13:27:52.256Z,1.30
2018-11-29T13:30:25.266Z,1.53
2018-11-29T13:32:55.554Z,1.20
2018-11-29T13:35:34.965Z,1.57
2018-11-29T13:38:11.339Z,1.30
2018-11-29T13:40:41.558Z,1.73
2018-11-29T13:43:10.883Z,1.60
2018-11-29T13:45:41.033Z,1.70
2018-11-29T13:48:11.035Z,1.23
2018-11-29T13:50:40.719Z,1.97
2018-11-29T13:53:10.298Z,1.60
2018-11-29T13:55:39.538Z,2.40
2018-11-29T13:58:08.625Z,1.67
2018-11-29T14:00:38.186Z,2.23
2018-11-29T14:03:11.057Z,2.30
2018-11-29T14:05:40.367Z,2.13
2018-11-29T14:08:10.169Z,2.17
2018-11-29T14:10:42.347Z,1.80
2018-11-29T14:13:12.058Z,2.10
2018-11-29T14:15:48.358Z,2.30
2018-11-29T14:18:17.510Z,2.13
2018-11-29T14:20:46.980Z,2.33
2018-11-29T14:23:16.172Z,2.57
2018-11-29T14:25:51.202Z,2.10
2018-11-29T14:28:21.779Z,2.27
2018-11-29T14:30:52.725Z,2.27
2018-11-29T14:33:21.852Z,2.50
2018-11-29T14:35:55.517Z,2.30
2018-11-29T14:38:24.617Z,2.33
2018-11-29T14:41:00.446Z,2.40
2018-11-29T14:43:30.070Z,2.10
2018-11-29T14:46:04.316Z,2.90
2018-11-29T14:48:34.078Z,2.37
2018-11-29T14:51:07.396Z,2.70
2018-11-29T14:53:36.627Z,2.10
2018-11-29T14:56:08.408Z,2.10
2018-11-29T14:58:37.911Z,2.07
2018-11-29T15:01:15.134Z,2.13
2018-11-29T15:03:44.264Z,2.10
2018-11-29T15:06:14.529Z,2.40
2018-11-29T15:08:44.094Z,2.10
2018-11-29T15:11:16.444Z,2.00
2018-11-29T15:13:46.263Z,2.27
2018-11-29T15:16:18.523Z,1.93
2018-11-29T15:18:47.687Z,2.20
2018-11-29T15:21:21.244Z,2.00
2018-11-29T15:23:50.748Z,2.30
2018-11-29T15:26:23.064Z,2.07
2018-11-29T15:28:52.527Z,2.03
2018-11-29T15:31:25.923Z,2.30
2018-11-29T15:33:57.863Z,2.20
2018-11-29T15:36:30.759Z,2.43
2018-11-29T15:38:59.981Z,2.07
2018-11-29T15:41:30.257Z,2.70
2018-11-29T15:43:59.760Z,2.20
2018-11-29T15:46:36.436Z,2.07
2018-11-29T15:49:06.454Z,1.97
2018-11-29T15:51:37.050Z,1.93
2018-11-29T15:54:06.605Z,2.20
2018-11-29T15:56:39.734Z,2.20
2018-11-29T15:59:09.287Z,2.50
2018-11-29T16:01:46.089Z,2.13
2018-11-29T16:04:15.441Z,2.07
2018-11-29T16:06:44.981Z,2.63
2018-11-29T16:09:14.112Z,2.33
2018-11-29T16:11:47.067Z,2.63
2018-11-29T16:14:18.827Z,2.10
2018-11-29T16:16:52.731Z,2.47
2018-11-29T16:19:22.216Z,2.13
2018-11-29T16:21:55.356Z,2.33
2018-11-29T16:24:24.628Z,1.73
2018-11-29T16:26:56.288Z,1.77
2018-11-29T16:29:25.592Z,2.20
2018-11-29T16:32:03.181Z,1.97
2018-11-29T16:34:32.330Z,2.63
2018-11-29T16:37:02.148Z,2.03
2018-11-29T16:39:31.928Z,2.40
2018-11-29T16:42:08.212Z,2.80
2018-11-29T16:44:38.302Z,2.40
2018-11-29T16:47:08.052Z,2.17
2018-11-29T16:49:40.145Z,1.90
2018-11-29T16:52:13.308Z,2.27
2018-11-29T16:54:42.751Z,2.63
2018-11-29T16:57:15.905Z,1.97
2018-11-29T16:59:46.729Z,2.50
2018-11-29T17:02:16.315Z,1.90
2018-11-29T17:04:46.863Z,2.47
2018-11-29T17:07:24.370Z,1.70
2018-11-29T17:09:53.785Z,1.90
2018-11-29T17:12:23.142Z,2.10
2018-11-29T17:14:55.246Z,1.90
2018-11-29T17:17:24.660Z,2.40
2018-11-29T17:23:33.526Z,2.63
2018-11-29T17:26:03.656Z,1.90
2018-11-29T17:28:33.661Z,1.70
2018-11-29T17:31:02.751Z,2.53
2018-11-29T17:33:31.894Z,2.17
2018-11-29T17:36:02.029Z,2.33
2018-11-29T17:38:36.080Z,2.30
2018-11-29T17:41:06.544Z,1.70
2018-11-29T17:43:37.766Z,1.53
2018-11-29T17:46:07.047Z,2.33
2018-11-29T17:48:43.795Z,2.00
2018-11-29T17:51:13.571Z,2.00
2018-11-29T17:53:43.094Z,2.13
2018-11-29T17:56:12.653Z,2.20
2018-11-29T17:58:49.613Z,2.00
2018-11-29T18:01:19.060Z,2.20
2018-11-29T18:03:49.029Z,1.63
2018-11-29T18:06:18.797Z,2.00
2018-11-29T18:08:52.097Z,2.97
2018-11-29T18:11:31.195Z,2.03
2018-11-29T18:14:00.674Z,3.13
2018-11-29T18:16:30.423Z,2.57
2018-11-29T18:18:59.996Z,2.73
2018-11-29T18:21:29.501Z,1.90
2018-11-29T18:24:03.145Z,2.07
2018-11-29T18:26:32.302Z,2.40
2018-11-29T18:29:09.209Z,2.40
2018-11-29T18:31:41.608Z,1.93
2018-11-29T18:34:12.034Z,2.27
2018-11-29T18:36:42.121Z,2.67
2018-11-29T18:39:12.277Z,2.27
2018-11-29T18:41:41.461Z,1.87
2018-11-29T18:44:12.259Z,2.20
2018-11-29T18:46:42.596Z,2.30
2018-11-29T18:49:15.040Z,2.03
2018-11-29T18:51:45.435Z,3.23
2018-11-29T18:54:16.019Z,1.87
2018-11-29T18:56:45.264Z,2.07
2018-11-29T18:59:20.528Z,2.57
2018-11-29T19:01:50.241Z,2.53
2018-11-29T19:04:21.124Z,2.07
2018-11-29T19:09:26.414Z,2.00
2018-11-29T19:11:55.782Z,2.53
2018-11-29T19:14:28.073Z,1.97
2018-11-29T19:16:58.056Z,1.90
2018-11-29T19:19:29.036Z,1.80
2018-11-29T19:21:58.204Z,1.90
2018-11-29T19:24:30.144Z,1.80
2018-11-29T19:27:00.064Z,1.80
2018-11-29T19:29:36.942Z,2.00
2018-11-29T19:32:06.997Z,2.47
2018-11-29T19:34:36.237Z,1.67
2018-11-29T19:37:05.550Z,1.70
2018-11-29T19:39:42.358Z,2.13
2018-11-29T19:42:11.497Z,1.53
2018-11-29T19:44:42.540Z,1.80
2018-11-29T19:47:11.792Z,1.60
2018-11-29T19:49:48.947Z,1.53
2018-11-29T19:52:18.305Z,1.60
2018-11-29T19:54:48.405Z,1.67
2018-11-29T19:57:17.913Z,2.33
2018-11-29T19:59:54.429Z,1.50
2018-11-29T20:02:24.084Z,1.60
2018-11-29T20:04:56.670Z,1.63
2018-11-29T20:07:25.950Z,1.90
2018-11-29T20:09:58.355Z,1.60
2018-11-29T20:12:27.539Z,1.33
2018-11-29T20:15:00.977Z,1.30
2018-11-29T20:17:30.457Z,1.30
2018-11-29T20:20:09.039Z,1.57
2018-11-29T20:22:39.120Z,1.30
2018-11-29T20:25:11.670Z,1.80
2018-11-29T20:27:41.323Z,1.70
2018-11-29T20:30:15.759Z,1.83
2018-11-29T20:32:45.262Z,1.67
2018-11-29T20:35:14.903Z,2.30
2018-11-29T20:37:44.430Z,1.63
2018-11-29T20:40:15.485Z,2.00
2018-11-29T20:42:45.859Z,2.40
2018-11-29T20:45:54.400Z,1.53
2018-11-29T20:48:31.615Z,2.70
2018-11-29T20:51:03.999Z,1.90
2018-11-29T20:53:37.124Z,2.40
2018-11-29T20:56:20.860Z,2.90
2018-11-29T20:58:50.418Z,1.23
2018-11-29T21:01:24.174Z,1.30
2018-11-29T21:03:53.467Z,1.37
2018-11-29T21:06:27.518Z,1.53
2018-11-29T21:08:57.138Z,1.97
2018-11-29T21:11:30.425Z,1.50
2018-11-29T21:14:00.233Z,1.83
2018-11-29T21:16:32.973Z,1.80
2018-11-29T21:19:02.340Z,1.60
2018-11-29T21:21:34.410Z,1.57
2018-11-29T21:24:03.996Z,1.50
2018-11-29T21:27:17.455Z,1.60
2018-11-29T21:29:46.936Z,1.60
2018-11-29T21:32:17.940Z,1.37
2018-11-29T21:34:47.481Z,1.77
2018-11-29T21:37:17.229Z,1.17
2018-11-29T21:39:47.104Z,1.90
2018-11-29T21:42:16.457Z,1.50
2018-11-29T21:44:46.086Z,1.80
2018-11-29T21:47:15.877Z,1.63
2018-11-29T21:49:49.333Z,1.90
2018-11-29T21:52:18.929Z,1.40
2018-11-29T21:54:57.067Z,1.57
2018-11-29T21:57:26.443Z,1.20
2018-11-29T21:59:58.643Z,1.70
2018-11-29T22:02:31.053Z,1.77
2018-11-29T22:05:00.452Z,1.73
2018-11-29T22:07:29.631Z,1.43
2018-11-29T22:10:01.886Z,1.70
2018-11-29T22:12:32.255Z,1.90
2018-11-29T22:15:04.840Z,1.40
2018-11-29T22:17:34.342Z,1.50
2018-11-29T22:20:06.856Z,1.47
2018-11-29T22:22:36.087Z,1.73
2018-11-29T22:25:13.280Z,1.93
2018-11-29T22:27:44.027Z,1.63
2018-11-29T22:30:13.372Z,1.50
2018-11-29T22:32:42.733Z,1.40
2018-11-29T22:35:15.776Z,1.47
2018-11-29T22:37:45.596Z,1.50
2018-11-29T22:40:20.538Z,1.30
2018-11-29T22:42:50.050Z,1.33
2018-11-29T22:45:23.056Z,1.37
2018-11-29T22:47:52.253Z,1.40
2018-11-29T22:50:25.276Z,1.70
2018-11-29T22:52:54.706Z,1.37
2018-11-29T22:55:38.753Z,1.20
2018-11-29T22:58:08.521Z,1.10
2018-11-29T23:00:39.959Z,1.50
2018-11-29T23:03:09.436Z,1.13
2018-11-29T23:05:39.010Z,1.17
2018-11-29T23:08:08.187Z,1.53
2018-11-29T23:10:39.335Z,1.87
2018-11-29T23:13:11.468Z,1.50
2018-11-29T23:15:40.822Z,1.30
2018-11-29T23:18:10.436Z,1.33
2018-11-29T23:20:40.440Z,1.00
2018-11-29T23:23:10.117Z,1.10
2018-11-29T23:25:43.252Z,1.30
2018-11-29T23:28:12.820Z,1.10
2018-11-29T23:30:45.523Z,1.13
2018-11-29T23:33:14.899Z,1.10
2018-11-29T23:35:47.961Z,1.20
2018-11-29T23:38:17.245Z,1.13
2018-11-29T23:40:50.269Z,1.63
2018-11-29T23:43:22.629Z,1.97
2018-11-29T23:45:53.539Z,1.00
2018-11-29T23:48:22.932Z,1.20
2018-11-29T23:50:55.493Z,1.17
2018-11-29T23:53:25.303Z,1.20
2018-11-29T23:56:02.669Z,1.23
2018-11-29T23:58:32.469Z,1.17
